Time;durP1;ratioP1;P1;durP2;ratioP2;P2;SDS_P1;SDS_P2;PMS_P1;PMS_P2;Temp;Humidity;BMP_temperature;BMP_pressure;BME280_temperature;BME280_humidity;BME280_pressure;Samples;Min_cycle;Max_cycle;Signal;HPM_P1;HPM_P2
2021/12/26 00:04:27;;;;;;;15.63;6.77;;;-5.20;99.90;;;;;;10005493;29;20239;-75
2021/12/26 00:09:49;;;;;;;13.43;6.60;;;-5.00;87.50;;;;;;10005373;29;20251;-76
2021/12/26 00:15:11;;;;;;;14.57;6.97;;;-4.80;99.90;;;;;;10003770;29;20515;-75
2021/12/26 00:20:33;;;;;;;19.80;7.93;;;-4.60;99.90;;;;;;9991541;29;20203;-79
2021/12/26 00:25:55;;;;;;;16.73;8.00;;;-4.60;99.90;;;;;;10003335;29;20197;-78
2021/12/26 00:31:18;;;;;;;19.50;8.23;;;-4.60;99.90;;;;;;10004200;29;20248;-75
2021/12/26 00:36:41;;;;;;;18.43;7.60;;;-4.50;99.90;;;;;;9966906;29;20196;-78
2021/12/26 00:42:04;;;;;;;17.93;8.03;;;-4.60;99.90;;;;;;9955300;29;20277;-76
2021/12/26 00:47:29;;;;;;;24.10;9.57;;;-4.60;99.90;;;;;;9990577;29;20210;-74
2021/12/26 00:52:51;;;;;;;16.20;8.57;;;-4.60;99.90;;;;;;9990065;29;20394;-74
2021/12/26 00:58:13;;;;;;;15.77;7.57;;;-4.70;99.90;;;;;;9990124;29;20219;-76
2021/12/26 01:03:36;;;;;;;18.23;8.73;;;-4.80;99.90;;;;;;10002979;29;20204;-75
2021/12/26 01:08:58;;;;;;;19.63;8.33;;;-4.90;99.90;;;;;;9977089;29;20237;-75
2021/12/26 01:14:26;;;;;;;18.83;8.00;;;-5.00;99.90;;;;;;10002598;29;20199;-75
2021/12/26 01:19:55;;;;;;;13.80;7.70;;;-5.00;99.90;;;;;;9990609;29;20239;-74
2021/12/26 01:25:17;;;;;;;16.00;7.37;;;-5.10;99.90;;;;;;10002361;29;20199;-75
2021/12/26 01:30:40;;;;;;;17.83;7.37;;;-5.10;99.90;;;;;;10002945;29;20257;-77
2021/12/26 01:36:04;;;;;;;15.27;7.00;;;-5.10;99.90;;;;;;10003207;29;20200;-78
2021/12/26 01:42:02;;;;;;;15.67;6.73;;;-5.10;99.90;;;;;;9999424;29;20268;-78
2021/12/26 01:47:40;;;;;;;13.70;7.23;;;-5.20;99.90;;;;;;9934167;29;20526;-76
2021/12/26 01:53:05;;;;;;;16.20;6.33;;;-5.10;99.90;;;;;;9942646;29;20223;-77
2021/12/26 01:58:30;;;;;;;18.23;7.10;;;-5.10;99.90;;;;;;9932216;29;20237;-76
2021/12/26 02:03:59;;;;;;;12.73;6.17;;;-5.20;99.90;;;;;;9966035;29;20241;-74
2021/12/26 02:09:21;;;;;;;13.83;6.10;;;-5.10;99.90;;;;;;9953011;29;20297;-75
2021/12/26 02:14:45;;;;;;;14.37;6.60;;;-5.20;99.90;;;;;;9956908;29;20447;-77
2021/12/26 02:20:32;;;;;;;12.30;5.63;;;-5.20;99.90;;;;;;10007998;29;20523;-76
2021/12/26 02:31:21;;;;;;;13.30;5.67;;;-5.10;99.90;;;;;;9994056;29;20256;-78
2021/12/26 02:36:44;;;;;;;12.27;4.63;;;-5.10;99.90;;;;;;10006734;29;20278;-78
2021/12/26 02:42:07;;;;;;;8.80;5.20;;;-5.00;99.90;;;;;;10007074;29;20206;-76
2021/12/26 02:47:36;;;;;;;12.90;4.83;;;-5.00;99.90;;;;;;9993982;29;20215;-74
2021/12/26 02:53:00;;;;;;;13.13;5.70;;;-5.00;99.90;;;;;;9993441;29;20268;-74
2021/12/26 02:58:23;;;;;;;12.73;4.87;;;-5.10;99.90;;;;;;10006774;29;20228;-78
2021/12/26 03:03:46;;;;;;;12.43;5.13;;;-5.10;99.90;;;;;;9993220;29;20576;-80
2021/12/26 03:09:10;;;;;;;9.80;4.40;;;-5.20;99.90;;;;;;10006030;29;20243;-78
2021/12/26 03:14:31;;;;;;;13.10;4.80;;;-5.30;99.90;;;;;;9993144;29;20216;-80
2021/12/26 03:19:53;;;;;;;11.83;5.00;;;-5.30;99.90;;;;;;9966431;29;20287;-77
2021/12/26 03:25:22;;;;;;;11.87;4.87;;;-5.30;99.90;;;;;;9968026;29;20237;-77
2021/12/26 03:30:45;;;;;;;12.90;4.80;;;-5.30;99.90;;;;;;9986308;29;20252;-80
2021/12/26 03:36:07;;;;;;;9.57;4.50;;;-5.40;99.90;;;;;;10005357;29;20203;-78
2021/12/26 03:41:29;;;;;;;9.73;3.80;;;-5.40;99.90;;;;;;10005002;29;20217;-78
2021/12/26 03:46:53;;;;;;;6.97;3.57;;;-5.40;99.90;;;;;;10005416;29;20225;-78
2021/12/26 03:52:15;;;;;;;7.70;3.90;;;-5.50;99.90;;;;;;10005315;29;20278;-80
2021/12/26 03:57:38;;;;;;;7.40;3.53;;;-5.50;99.90;;;;;;9994148;29;20499;-74
2021/12/26 04:03:00;;;;;;;11.63;4.10;;;-5.40;99.90;;;;;;10021899;29;20244;-77
2021/12/26 04:08:25;;;;;;;9.17;4.30;;;-5.40;99.90;;;;;;9991586;29;20215;-74
2021/12/26 04:13:47;;;;;;;7.13;3.60;;;-5.50;99.90;;;;;;9991638;29;20206;-75
2021/12/26 04:19:11;;;;;;;9.90;4.43;;;-5.60;99.90;;;;;;10004047;29;20215;-77
2021/12/26 04:24:33;;;;;;;9.47;4.23;;;-5.60;99.90;;;;;;10004405;29;20249;-77
2021/12/26 04:29:55;;;;;;;12.00;4.33;;;-5.70;99.90;;;;;;10004314;29;20243;-77
2021/12/26 04:35:20;;;;;;;10.83;5.97;;;-5.70;99.90;;;;;;10003401;29;20233;-77
2021/12/26 04:40:42;;;;;;;10.70;5.13;;;-5.90;99.90;;;;;;10003866;29;20207;-77
2021/12/26 04:46:19;;;;;;;10.90;6.20;;;-6.00;99.90;;;;;;10003269;29;20200;-79
2021/12/26 04:52:01;;;;;;;14.37;6.53;;;-6.20;99.90;;;;;;9990392;29;20254;-79
2021/12/26 04:57:26;;;;;;;11.33;6.37;;;;;;;;;;10003299;29;20196;-77
2021/12/26 05:02:49;;;;;;;15.57;6.40;;;-6.60;99.90;;;;;;10002408;29;20201;-79
2021/12/26 05:08:17;;;;;;;11.80;5.67;;;-6.70;99.90;;;;;;10002912;29;20203;-79
2021/12/26 05:13:39;;;;;;;10.60;5.20;;;-6.60;99.90;;;;;;10003952;29;20399;-78
2021/12/26 05:19:00;;;;;;;17.43;6.20;;;-6.50;99.90;;;;;;10002581;29;20208;-79
2021/12/26 05:24:23;;;;;;;13.47;5.90;;;-6.20;99.90;;;;;;9990272;29;20200;-79
2021/12/26 05:29:45;;;;;;;9.50;4.70;;;-6.20;99.90;;;;;;10009778;29;20245;-78
2021/12/26 05:35:09;;;;;;;10.00;5.20;;;-6.00;99.90;;;;;;10009340;29;20212;-79
2021/12/26 05:40:33;;;;;;;9.67;4.93;;;-5.90;99.90;;;;;;9996393;29;20205;-79
2021/12/26 05:45:55;;;;;;;7.97;4.60;;;-5.80;99.90;;;;;;10008976;29;20193;-78
2021/12/26 05:51:18;;;;;;;7.87;4.53;;;-5.70;99.90;;;;;;9996455;29;20238;-80
2021/12/26 05:57:12;;;;;;;8.33;4.20;;;-5.80;99.90;;;;;;10011848;29;20583;-79
2021/12/26 06:02:34;;;;;;;13.93;6.63;;;-5.90;99.90;;;;;;9995169;29;20205;-79
2021/12/26 06:07:56;;;;;;;42.33;15.07;;;-6.10;99.90;;;;;;9995512;29;20209;-79
2021/12/26 06:13:24;;;;;;;54.43;21.83;;;-6.10;99.90;;;;;;9996091;29;20229;-76
2021/12/26 06:18:47;;;;;;;52.70;21.07;;;-6.20;99.90;;;;;;10007800;29;20506;-79
2021/12/26 06:24:28;;;;;;;31.60;12.27;;;-6.30;99.90;;;;;;10008640;29;20242;-76
2021/12/26 06:30:17;;;;;;;15.23;7.87;;;-6.20;99.90;;;;;;10006855;29;20247;-77
2021/12/26 06:35:59;;;;;;;16.53;6.40;;;-6.00;99.90;;;;;;10007032;29;20249;-78
2021/12/26 06:41:40;;;;;;;13.50;6.47;;;-5.90;99.90;;;;;;10007931;29;20263;-77
2021/12/26 06:47:24;;;;;;;19.37;7.50;;;-5.70;99.90;;;;;;10026979;29;20228;-77
2021/12/26 06:52:48;;;;;;;15.73;6.57;;;-5.40;99.90;;;;;;10042037;29;20244;-75
2021/12/26 06:58:11;;;;;;;18.30;8.50;;;-5.20;99.90;;;;;;10029120;29;20516;-76
2021/12/26 07:03:33;;;;;;;25.07;10.10;;;-5.10;99.90;;;;;;10038806;29;20208;-78
2021/12/26 07:08:55;;;;;;;29.37;12.30;;;-4.90;99.90;;;;;;10005321;29;20218;-77
2021/12/26 07:14:18;;;;;;;23.77;11.80;;;-4.80;99.90;;;;;;10004381;29;20242;-77
2021/12/26 07:19:41;;;;;;;22.37;10.90;;;-4.60;99.90;;;;;;10015812;29;20252;-80
2021/12/26 07:25:22;;;;;;;21.90;9.97;;;-4.50;99.90;;;;;;9981879;29;20280;-75
2021/12/26 07:30:44;;;;;;;22.93;11.20;;;-4.30;99.90;;;;;;9986306;29;20250;-76
2021/12/26 07:36:08;;;;;;;31.63;13.57;;;-4.20;99.90;;;;;;9992567;29;20200;-80
2021/12/26 07:41:42;;;;;;;27.10;13.37;;;-4.10;99.90;;;;;;10006593;29;20203;-80
2021/12/26 07:47:24;;;;;;;25.77;12.17;;;-4.10;99.90;;;;;;10004817;29;20395;-76
2021/12/26 07:52:52;;;;;;;30.33;14.47;;;-3.90;99.90;;;;;;10004974;29;20399;-75
2021/12/26 07:58:34;;;;;;;29.63;12.30;;;-3.80;99.90;;;;;;10005462;29;20201;-77
2021/12/26 08:04:25;;;;;;;30.57;11.50;;;-3.80;99.90;;;;;;9963671;29;20549;-76
2021/12/26 08:10:08;;;;;;;21.77;10.80;;;-3.60;99.90;;;;;;9963894;29;20575;-78
2021/12/26 08:15:30;;;;;;;26.83;12.67;;;-3.50;99.90;;;;;;9963961;29;20208;-77
2021/12/26 08:20:54;;;;;;;49.03;22.53;;;-3.40;99.90;;;;;;9963946;29;20279;-80
2021/12/26 08:26:16;;;;;;;41.43;20.87;;;-3.40;99.90;;;;;;9963904;29;20220;-77
2021/12/26 08:31:38;;;;;;;29.83;14.40;;;-3.20;99.90;;;;;;9963105;29;20245;-74
2021/12/26 08:37:02;;;;;;;24.57;13.17;;;-3.10;99.90;;;;;;9928824;29;20205;-79
2021/12/26 08:42:24;;;;;;;30.10;13.13;;;-3.00;99.90;;;;;;9966694;29;20206;-74
2021/12/26 08:47:46;;;;;;;28.67;12.33;;;-3.00;99.90;;;;;;9965256;29;20208;-74
2021/12/26 08:53:10;;;;;;;23.33;12.60;;;-2.80;99.90;;;;;;9966214;29;20608;-75
2021/12/26 08:58:32;;;;;;;24.60;11.73;;;-2.70;99.90;;;;;;9965317;29;20284;-75
2021/12/26 09:03:54;;;;;;;26.30;13.03;;;-2.60;99.90;;;;;;9993848;29;20202;-78
2021/12/26 09:09:16;;;;;;;21.97;11.77;;;-2.50;99.90;;;;;;10015683;29;20220;-78
2021/12/26 09:14:38;;;;;;;28.30;12.10;;;-2.40;99.90;;;;;;10026332;29;20204;-77
2021/12/26 09:20:00;;;;;;;21.50;10.40;;;-2.30;99.90;;;;;;10011580;29;20196;-75
2021/12/26 09:25:22;;;;;;;23.60;12.37;;;-2.30;99.90;;;;;;10011016;29;20211;-77
2021/12/26 09:30:44;;;;;;;33.43;13.83;;;-2.20;99.90;;;;;;10000440;29;20574;-77
2021/12/26 09:36:07;;;;;;;32.17;14.87;;;-2.10;99.90;;;;;;10009209;29;20226;-76
2021/12/26 09:41:29;;;;;;;30.33;14.17;;;-2.00;99.90;;;;;;10009521;29;20210;-78
2021/12/26 09:46:51;;;;;;;37.77;19.37;;;-1.90;99.90;;;;;;10009291;29;20276;-78
2021/12/26 09:52:14;;;;;;;23.13;13.17;;;-1.80;99.90;;;;;;10009485;29;20455;-78
2021/12/26 09:57:35;;;;;;;29.70;14.07;;;-1.90;99.90;;;;;;10008421;29;20205;-74
2021/12/26 10:03:22;;;;;;;29.87;12.90;;;-1.80;99.90;;;;;;10009304;29;20277;-75
2021/12/26 10:08:57;;;;;;;35.07;16.03;;;-1.80;99.90;;;;;;10007969;29;20205;-77
2021/12/26 10:14:28;;;;;;;31.67;13.30;;;-1.60;99.90;;;;;;10007807;29;20213;-76
2021/12/26 10:19:50;;;;;;;37.33;16.57;;;-1.50;99.90;;;;;;10007664;29;20210;-74
2021/12/26 10:25:15;;;;;;;42.17;20.57;;;-1.50;99.90;;;;;;10007538;29;20259;-74
2021/12/26 10:30:43;;;;;;;31.43;14.63;;;-1.40;99.90;;;;;;10008052;29;20256;-75
2021/12/26 10:36:06;;;;;;;25.50;12.30;;;-1.30;99.90;;;;;;10008148;29;20262;-75
2021/12/26 10:41:28;;;;;;;28.90;14.23;;;-1.30;99.90;;;;;;9994342;29;20387;-78
2021/12/26 10:46:54;;;;;;;27.97;13.57;;;-1.10;99.90;;;;;;10008489;29;20202;-76
2021/12/26 10:52:36;;;;;;;32.93;15.67;;;-1.00;99.90;;;;;;10007504;29;20343;-77
2021/12/26 10:58:11;;;;;;;26.20;13.93;;;-1.00;99.90;;;;;;10007516;29;20494;-76
2021/12/26 11:03:34;;;;;;;29.37;14.53;;;-1.00;99.90;;;;;;10006598;29;20224;-76
2021/12/26 11:08:58;;;;;;;38.17;14.63;;;-1.00;99.90;;;;;;10011178;29;20211;-78
2021/12/26 11:14:21;;;;;;;27.03;13.43;;;-1.00;99.90;;;;;;10008156;29;20213;-77
2021/12/26 11:19:45;;;;;;;35.53;16.83;;;-1.00;99.90;;;;;;10007936;29;20271;-75
2021/12/26 11:25:11;;;;;;;37.73;18.63;;;-0.90;99.90;;;;;;10007751;29;20205;-75
2021/12/26 11:30:33;;;;;;;43.07;18.77;;;-0.70;99.90;;;;;;10006935;29;20250;-78
2021/12/26 11:35:59;;;;;;;42.17;21.37;;;-0.50;99.90;;;;;;10006814;29;20572;-75
2021/12/26 11:41:24;;;;;;;31.83;16.57;;;-0.60;99.90;;;;;;10006960;29;20501;-76
2021/12/26 11:47:20;;;;;;;31.90;17.80;;;-0.60;99.90;;;;;;10007140;29;20530;-75
2021/12/26 11:53:43;;;;;;;27.93;15.00;;;-0.60;99.90;;;;;;10005388;29;20565;-78
2021/12/26 11:59:25;;;;;;;42.40;19.80;;;-0.50;99.90;;;;;;9991957;29;20242;-78
2021/12/26 12:05:07;;;;;;;62.30;27.97;;;-0.60;99.90;;;;;;10004879;29;20200;-77
2021/12/26 12:10:33;;;;;;;58.17;25.63;;;-0.70;99.90;;;;;;10004123;29;20305;-75
2021/12/26 12:16:09;;;;;;;60.73;25.90;;;-0.70;99.90;;;;;;10005168;29;20268;-75
2021/12/26 12:21:35;;;;;;;45.90;19.73;;;-0.70;99.90;;;;;;10004907;29;20277;-78
2021/12/26 12:26:58;;;;;;;40.67;18.87;;;-0.70;99.90;;;;;;10004794;29;20206;-75
2021/12/26 12:32:23;;;;;;;28.10;14.83;;;-0.60;99.90;;;;;;10004096;29;20268;-74
2021/12/26 12:37:48;;;;;;;41.67;18.30;;;-0.70;99.90;;;;;;10003595;29;20262;-78
2021/12/26 12:43:15;;;;;;;37.90;17.97;;;-0.60;99.90;;;;;;10004771;29;20201;-75
2021/12/26 12:48:45;;;;;;;29.33;15.10;;;-0.70;99.90;;;;;;10003067;29;20293;-76
2021/12/26 12:54:25;;;;;;;27.67;14.13;;;-0.70;99.90;;;;;;10004192;29;20229;-78
2021/12/26 12:59:47;;;;;;;31.73;15.17;;;-0.70;99.90;;;;;;10002706;29;20217;-77
2021/12/26 13:05:35;;;;;;;31.33;16.13;;;-0.70;99.90;;;;;;10002871;29;20201;-77
2021/12/26 13:10:57;;;;;;;28.60;14.90;;;-0.70;99.90;;;;;;10003845;29;20304;-75
2021/12/26 13:16:29;;;;;;;30.87;14.77;;;-0.80;99.90;;;;;;10003589;29;20442;-78
2021/12/26 13:21:56;;;;;;;31.87;16.97;;;-0.70;99.90;;;;;;10002979;29;20249;-78
2021/12/26 13:27:24;;;;;;;31.77;15.57;;;-0.70;99.90;;;;;;10002470;29;20391;-75
2021/12/26 13:32:45;;;;;;;34.37;16.10;;;-0.70;99.90;;;;;;10001516;29;20253;-77
2021/12/26 13:38:08;;;;;;;39.47;19.97;;;-0.70;99.90;;;;;;10003558;29;20496;-78
2021/12/26 13:43:39;;;;;;;64.77;26.80;;;-0.70;99.90;;;;;;10002939;29;20385;-78
2021/12/26 13:49:01;;;;;;;54.60;27.33;;;-0.80;99.90;;;;;;10008551;29;20382;-75
2021/12/26 13:54:31;;;;;;;65.30;28.37;;;-0.80;99.90;;;;;;10008666;29;20230;-75
2021/12/26 13:59:55;;;;;;;52.43;24.67;;;-0.80;99.90;;;;;;10008150;29;20519;-75
2021/12/26 14:05:22;;;;;;;54.40;24.80;;;-0.80;99.90;;;;;;9996142;29;20233;-80
2021/12/26 14:10:53;;;;;;;35.63;18.10;;;-0.90;99.90;;;;;;9995218;29;20312;-77
2021/12/26 14:16:31;;;;;;;20.17;11.57;;;-0.90;99.90;;;;;;10007552;29;20211;-75
2021/12/26 14:21:53;;;;;;;41.63;24.60;;;-0.90;99.90;;;;;;9994846;29;20210;-78
2021/12/26 14:27:15;;;;;;;20.50;13.43;;;-1.00;99.90;;;;;;10007540;29;20206;-75
2021/12/26 14:32:37;;;;;;;13.43;8.73;;;-1.00;99.90;;;;;;10006907;29;20254;-75
2021/12/26 14:38:11;;;;;;;24.37;11.17;;;-1.10;99.90;;;;;;10008477;29;20202;-75
2021/12/26 14:43:40;;;;;;;18.47;10.00;;;-1.00;99.90;;;;;;10006781;29;20261;-75
2021/12/26 14:49:12;;;;;;;16.70;10.03;;;-1.10;99.90;;;;;;10006775;29;20456;-76
2021/12/26 14:56:48;;;;;;;26.53;12.33;;;-1.20;99.90;;;;;;10598664;27;20546;-76
2021/12/26 15:02:15;;;;;;;19.50;9.07;;;-1.30;99.90;;;;;;10596703;28;20485;-77
2021/12/26 15:07:41;;;;;;;21.30;11.77;;;-1.40;99.90;;;;;;10598556;28;20195;-78
2021/12/26 15:13:09;;;;;;;27.93;12.80;;;-1.50;99.90;;;;;;10582620;28;20222;-78
2021/12/26 15:18:32;;;;;;;18.73;9.90;;;-1.50;99.90;;;;;;10597073;28;20484;-79
2021/12/26 15:24:07;;;;;;;21.93;12.77;;;-1.50;99.90;;;;;;10596805;28;20199;-78
2021/12/26 15:29:28;;;;;;;32.30;16.77;;;-1.60;99.90;;;;;;10595792;28;20196;-79
2021/12/26 15:34:50;;;;;;;45.40;21.50;;;-1.60;99.90;;;;;;10554914;28;20411;-79
2021/12/26 15:40:14;;;;;;;47.13;21.23;;;-1.70;99.90;;;;;;10553580;28;20218;-79
2021/12/26 15:45:35;;;;;;;37.77;16.50;;;-1.80;99.90;;;;;;10554446;28;20226;-79
2021/12/26 15:50:57;;;;;;;27.87;12.63;;;-1.80;99.90;;;;;;10553249;28;20196;-78
2021/12/26 15:56:19;;;;;;;22.90;11.17;;;-1.80;99.90;;;;;;10577204;28;20242;-76
2021/12/26 16:01:43;;;;;;;18.33;9.20;;;-1.80;99.90;;;;;;10594466;28;20213;-76
2021/12/26 16:07:07;;;;;;;15.37;6.90;;;-1.80;99.90;;;;;;10572385;28;20255;-80
2021/12/26 16:12:29;;;;;;;13.63;5.83;;;-1.70;99.90;;;;;;10567358;28;20289;-79
2021/12/26 16:17:51;;;;;;;12.97;7.03;;;-1.80;99.90;;;;;;10567330;28;20191;-77
2021/12/26 16:23:13;;;;;;;18.67;8.90;;;-1.80;99.90;;;;;;10565704;28;20363;-77
2021/12/26 16:28:39;;;;;;;19.77;9.23;;;-1.70;99.90;;;;;;10566750;28;20196;-79
2021/12/26 16:34:01;;;;;;;17.47;9.37;;;-1.70;99.90;;;;;;10566445;28;20248;-78
2021/12/26 16:39:23;;;;;;;20.87;9.30;;;-1.60;99.90;;;;;;10550915;28;20203;-78
2021/12/26 16:44:45;;;;;;;17.30;8.67;;;-1.60;99.90;;;;;;10564766;28;20433;-77
2021/12/26 16:50:11;;;;;;;18.13;9.30;;;-1.60;99.90;;;;;;10565139;28;20182;-79
2021/12/26 16:55:35;;;;;;;19.17;9.03;;;-1.50;99.90;;;;;;10565116;28;20273;-76
2021/12/26 17:00:58;;;;;;;19.30;9.50;;;-1.50;99.90;;;;;;10565270;28;20201;-79
2021/12/26 17:06:21;;;;;;;24.57;12.50;;;-1.50;99.90;;;;;;10564348;28;20191;-76
2021/12/26 17:11:45;;;;;;;27.23;13.20;;;-1.40;99.90;;;;;;10564060;28;20232;-78
2021/12/26 17:17:07;;;;;;;31.40;15.17;;;-1.40;99.90;;;;;;10562787;28;20211;-78
2021/12/26 17:22:30;;;;;;;38.10;18.60;;;-1.40;99.90;;;;;;10564414;28;20521;-79
2021/12/26 17:27:51;;;;;;;26.53;13.30;;;-1.40;99.90;;;;;;10564313;28;20228;-78
2021/12/26 17:33:13;;;;;;;19.70;10.33;;;-1.40;99.90;;;;;;10562814;28;20219;-79
2021/12/26 17:38:38;;;;;;;22.90;11.37;;;-1.30;99.90;;;;;;10563004;28;20195;-77
2021/12/26 17:44:00;;;;;;;20.13;9.73;;;-1.30;99.90;;;;;;10563863;28;20198;-76
2021/12/26 17:49:23;;;;;;;23.07;11.20;;;-1.30;99.90;;;;;;10548247;28;20203;-78
2021/12/26 17:54:48;;;;;;;34.67;17.73;;;-1.30;99.90;;;;;;10561895;28;20462;-76
2021/12/26 18:00:14;;;;;;;31.97;15.80;;;-1.30;99.90;;;;;;10548407;28;20516;-79
2021/12/26 18:05:37;;;;;;;35.00;16.43;;;-1.30;99.90;;;;;;10589918;28;20201;-79
2021/12/26 18:11:00;;;;;;;60.60;25.17;;;-1.40;99.90;;;;;;10575452;28;20196;-76
2021/12/26 18:16:23;;;;;;;42.67;19.57;;;-1.30;99.90;;;;;;10589413;28;20471;-79
2021/12/26 18:21:45;;;;;;;33.70;16.30;;;-1.40;99.90;;;;;;10588979;28;20236;-77
2021/12/26 18:27:07;;;;;;;37.87;16.83;;;-1.50;99.90;;;;;;10602839;28;20201;-78
2021/12/26 18:32:29;;;;;;;42.03;17.33;;;-1.60;99.90;;;;;;10566991;28;20248;-77
2021/12/26 18:37:52;;;;;;;46.37;19.50;;;-1.60;99.90;;;;;;10560869;28;20515;-78
2021/12/26 18:43:14;;;;;;;39.80;18.03;;;-1.60;99.90;;;;;;10561409;28;20196;-79
2021/12/26 18:48:36;;;;;;;38.47;17.10;;;-1.60;99.90;;;;;;10560143;28;20249;-79
2021/12/26 18:54:00;;;;;;;45.27;17.67;;;-1.60;99.90;;;;;;10560975;28;20270;-77
2021/12/26 18:59:24;;;;;;;64.03;29.47;;;-1.60;99.90;;;;;;10560248;28;20203;-79
2021/12/26 19:04:47;;;;;;;80.40;37.47;;;-1.70;99.90;;;;;;10561606;28;20217;-79
2021/12/26 19:10:09;;;;;;;115.77;55.80;;;-1.70;99.90;;;;;;10560532;28;20218;-76
2021/12/26 19:15:32;;;;;;;76.40;30.90;;;-1.60;99.90;;;;;;10560195;28;20530;-76
2021/12/26 19:20:58;;;;;;;56.20;22.57;;;-1.60;99.90;;;;;;10560238;28;20259;-78
2021/12/26 19:26:20;;;;;;;54.40;22.73;;;-1.70;99.90;;;;;;10522231;28;20200;-76
2021/12/26 19:31:46;;;;;;;51.67;20.27;;;-1.60;99.90;;;;;;10549551;28;20205;-77
2021/12/26 19:37:09;;;;;;;38.87;19.80;;;-1.60;99.90;;;;;;10545593;28;20388;-77
2021/12/26 19:42:31;;;;;;;47.13;21.13;;;-1.60;99.90;;;;;;10567195;28;20192;-77
2021/12/26 19:47:53;;;;;;;69.97;30.97;;;-1.70;99.90;;;;;;10568494;28;20243;-78
2021/12/26 19:53:15;;;;;;;53.30;25.23;;;-1.70;99.90;;;;;;10567321;28;20567;-76
2021/12/26 19:58:37;;;;;;;49.27;21.00;;;-1.70;99.90;;;;;;10568239;28;20188;-79
2021/12/26 20:03:59;;;;;;;61.20;28.30;;;-1.70;99.90;;;;;;10553069;28;20412;-79
2021/12/26 20:09:21;;;;;;;66.20;30.50;;;-1.70;99.90;;;;;;10567806;28;20196;-76
2021/12/26 20:14:43;;;;;;;64.67;29.10;;;-1.70;99.90;;;;;;10567047;28;20356;-79
2021/12/26 20:20:06;;;;;;;85.67;33.17;;;-1.80;99.90;;;;;;10566908;28;20195;-77
2021/12/26 20:25:30;;;;;;;62.43;28.77;;;-1.70;99.90;;;;;;10567348;28;20230;-78
2021/12/26 20:30:54;;;;;;;53.17;22.20;;;-1.70;99.90;;;;;;10565618;28;20203;-78
2021/12/26 20:36:17;;;;;;;43.13;19.33;;;-1.60;99.90;;;;;;10566201;28;20255;-76
2021/12/26 20:46:37;;;;;;;28.07;13.70;;;-1.70;99.90;;;;;;10517220;28;20569;-76
2021/12/26 20:51:59;;;;;;;34.83;15.90;;;-1.70;99.90;;;;;;10513989;28;20411;-76
2021/12/26 20:57:21;;;;;;;41.10;20.53;;;-1.70;99.90;;;;;;10514691;28;20245;-76
2021/12/26 21:02:45;;;;;;;39.03;18.80;;;-1.70;99.90;;;;;;10471724;28;20546;-77
2021/12/26 21:08:13;;;;;;;25.40;13.90;;;-1.60;99.90;;;;;;10472808;28;20194;-76
2021/12/26 21:13:36;;;;;;;31.63;13.53;;;-1.60;99.90;;;;;;10471138;28;20275;-76
2021/12/26 21:18:58;;;;;;;46.03;19.60;;;-1.60;99.90;;;;;;10471430;28;20192;-76
2021/12/26 21:24:24;;;;;;;38.47;18.13;;;-1.60;99.90;;;;;;10473861;28;20249;-77
2021/12/26 21:29:46;;;;;;;42.23;17.13;;;-1.60;99.90;;;;;;10489305;28;20212;-76
2021/12/26 21:35:09;;;;;;;35.20;16.10;;;-1.60;99.90;;;;;;10513801;28;20212;-76
2021/12/26 21:40:33;;;;;;;34.30;14.23;;;-1.70;99.90;;;;;;10511457;28;20210;-77
2021/12/26 21:45:57;;;;;;;39.17;16.53;;;-1.70;99.90;;;;;;10497623;28;20290;-79
2021/12/26 22:51:06;;;;;;;38.70;17.00;;;-2.00;99.90;;;;;;10640938;27;20569;-80
2021/12/26 22:56:29;;;;;;;31.77;14.03;;;-2.00;99.90;;;;;;10583573;28;20213;-79
2021/12/26 23:01:52;;;;;;;31.13;15.13;;;-1.90;99.90;;;;;;10640210;27;20198;-78
2021/12/26 23:07:14;;;;;;;46.23;18.23;;;-1.80;99.90;;;;;;10609995;27;20206;-79
2021/12/26 23:12:36;;;;;;;40.37;18.93;;;-1.70;99.90;;;;;;10624271;27;20225;-78
2021/12/26 23:17:58;;;;;;;43.00;19.87;;;-1.70;99.90;;;;;;10623366;28;20318;-79
2021/12/26 23:23:24;;;;;;;49.27;20.63;;;-1.70;99.90;;;;;;10638481;28;20193;-79
2021/12/26 23:28:45;;;;;;;62.77;21.40;;;-1.80;99.90;;;;;;10624025;28;20404;-79
2021/12/26 23:34:07;;;;;;;50.13;21.10;;;-1.80;99.90;;;;;;10623889;28;20194;-81
2021/12/26 23:39:29;;;;;;;40.17;17.50;;;-1.90;99.90;;;;;;10637702;28;20196;-79
2021/12/26 23:44:53;;;;;;;31.77;14.37;;;-1.90;99.90;;;;;;10636480;28;20489;-78
2021/12/26 23:50:15;;;;;;;26.07;12.47;;;-2.00;99.90;;;;;;10604754;28;20232;-81
2021/12/26 23:55:37;;;;;;;27.83;12.47;;;-2.00;99.90;;;;;;10594663;28;20199;-80
